sensor_id;sensor_type;location;lat;lon;timestamp;temperature;humidity
13310;DHT22;6723;48.256;16.402;2024-02-26T00:00:39;7.60;99.90
13310;DHT22;6723;48.256;16.402;2024-02-26T00:03:04;7.70;99.90
13310;DHT22;6723;48.256;16.402;2024-02-26T00:05:30;7.60;99.90
13310;DHT22;6723;48.256;16.402;2024-02-26T00:07:57;7.60;99.90
13310;DHT22;6723;48.256;16.402;2024-02-26T00:10:23;7.60;99.90
13310;DHT22;6723;48.256;16.402;2024-02-26T00:12:49;7.50;99.90
13310;DHT22;6723;48.256;16.402;2024-02-26T00:15:15;7.50;99.90
13310;DHT22;6723;48.256;16.402;2024-02-26T00:17:41;7.60;99.90
13310;DHT22;6723;48.256;16.402;2024-02-26T00:20:10;7.50;99.90
13310;DHT22;6723;48.256;16.402;2024-02-26T00:22:37;7.40;99.90
13310;DHT22;6723;48.256;16.402;2024-02-26T00:25:03;7.40;99.90
13310;DHT22;6723;48.256;16.402;2024-02-26T00:27:29;7.40;99.90
13310;DHT22;6723;48.256;16.402;2024-02-26T00:29:55;7.30;99.90
13310;DHT22;6723;48.256;16.402;2024-02-26T00:32:21;7.30;99.90
13310;DHT22;6723;48.256;16.402;2024-02-26T00:34:46;7.20;99.90
13310;DHT22;6723;48.256;16.402;2024-02-26T00:37:12;7.10;99.90
13310;DHT22;6723;48.256;16.402;2024-02-26T00:39:38;7.00;99.90
13310;DHT22;6723;48.256;16.402;2024-02-26T00:42:05;6.90;99.90
13310;DHT22;6723;48.256;16.402;2024-02-26T00:44:30;7.00;99.90
13310;DHT22;6723;48.256;16.402;2024-02-26T00:46:56;6.90;99.90
13310;DHT22;6723;48.256;16.402;2024-02-26T00:49:22;6.90;99.90
13310;DHT22;6723;48.256;16.402;2024-02-26T00:51:48;6.80;99.90
13310;DHT22;6723;48.256;16.402;2024-02-26T00:54:13;6.80;99.90
13310;DHT22;6723;48.256;16.402;2024-02-26T00:56:39;6.80;99.90
13310;DHT22;6723;48.256;16.402;2024-02-26T00:59:05;6.80;99.90
13310;DHT22;6723;48.256;16.402;2024-02-26T01:01:31;6.80;99.90
13310;DHT22;6723;48.256;16.402;2024-02-26T01:03:57;6.70;99.90
13310;DHT22;6723;48.256;16.402;2024-02-26T01:06:23;6.70;99.90
13310;DHT22;6723;48.256;16.402;2024-02-26T01:08:49;6.60;99.90
13310;DHT22;6723;48.256;16.402;2024-02-26T01:11:15;6.50;99.90
13310;DHT22;6723;48.256;16.402;2024-02-26T01:13:40;6.50;99.90
13310;DHT22;6723;48.256;16.402;2024-02-26T01:16:06;6.40;99.90
13310;DHT22;6723;48.256;16.402;2024-02-26T01:18:32;6.30;99.90
13310;DHT22;6723;48.256;16.402;2024-02-26T01:20:58;6.30;99.90
13310;DHT22;6723;48.256;16.402;2024-02-26T01:23:24;6.20;99.90
13310;DHT22;6723;48.256;16.402;2024-02-26T01:25:50;6.10;99.90
13310;DHT22;6723;48.256;16.402;2024-02-26T01:28:16;6.20;99.90
13310;DHT22;6723;48.256;16.402;2024-02-26T01:30:42;6.20;99.90
13310;DHT22;6723;48.256;16.402;2024-02-26T01:33:08;6.40;99.90
13310;DHT22;6723;48.256;16.402;2024-02-26T01:35:34;6.40;99.90
13310;DHT22;6723;48.256;16.402;2024-02-26T01:37:59;6.40;99.90
13310;DHT22;6723;48.256;16.402;2024-02-26T01:40:29;6.50;99.90
13310;DHT22;6723;48.256;16.402;2024-02-26T01:42:55;6.40;99.90
13310;DHT22;6723;48.256;16.402;2024-02-26T01:45:21;6.40;99.90
13310;DHT22;6723;48.256;16.402;2024-02-26T01:47:52;6.40;99.90
13310;DHT22;6723;48.256;16.402;2024-02-26T01:50:19;6.40;99.90
13310;DHT22;6723;48.256;16.402;2024-02-26T01:52:50;6.40;99.90
13310;DHT22;6723;48.256;16.402;2024-02-26T01:55:18;6.30;99.90
13310;DHT22;6723;48.256;16.402;2024-02-26T01:57:45;6.20;99.90
13310;DHT22;6723;48.256;16.402;2024-02-26T02:00:14;6.20;99.90
13310;DHT22;6723;48.256;16.402;2024-02-26T02:02:42;6.10;99.90
13310;DHT22;6723;48.256;16.402;2024-02-26T02:05:11;6.10;99.90
13310;DHT22;6723;48.256;16.402;2024-02-26T02:07:37;6.00;99.90
13310;DHT22;6723;48.256;16.402;2024-02-26T02:10:03;6.00;99.90
13310;DHT22;6723;48.256;16.402;2024-02-26T02:12:30;6.00;99.90
13310;DHT22;6723;48.256;16.402;2024-02-26T02:14:58;5.90;99.90
13310;DHT22;6723;48.256;16.402;2024-02-26T02:17:27;5.90;99.90
13310;DHT22;6723;48.256;16.402;2024-02-26T02:19:54;5.90;99.90
13310;DHT22;6723;48.256;16.402;2024-02-26T02:22:19;5.80;99.90
13310;DHT22;6723;48.256;16.402;2024-02-26T02:24:45;5.80;99.90
13310;DHT22;6723;48.256;16.402;2024-02-26T02:27:11;5.80;99.90
13310;DHT22;6723;48.256;16.402;2024-02-26T02:29:37;5.80;99.90
13310;DHT22;6723;48.256;16.402;2024-02-26T02:32:03;5.80;99.90
13310;DHT22;6723;48.256;16.402;2024-02-26T02:34:31;5.80;99.90
13310;DHT22;6723;48.256;16.402;2024-02-26T02:36:57;5.90;99.90
13310;DHT22;6723;48.256;16.402;2024-02-26T02:39:23;5.90;99.90
13310;DHT22;6723;48.256;16.402;2024-02-26T02:41:49;5.90;99.90
13310;DHT22;6723;48.256;16.402;2024-02-26T02:44:15;6.10;99.90
13310;DHT22;6723;48.256;16.402;2024-02-26T02:46:40;6.10;99.90
13310;DHT22;6723;48.256;16.402;2024-02-26T02:49:10;6.10;99.90
13310;DHT22;6723;48.256;16.402;2024-02-26T02:51:39;6.10;99.90
13310;DHT22;6723;48.256;16.402;2024-02-26T02:54:05;6.30;99.90
13310;DHT22;6723;48.256;16.402;2024-02-26T02:56:31;6.30;99.90
13310;DHT22;6723;48.256;16.402;2024-02-26T02:58:57;6.30;99.90
13310;DHT22;6723;48.256;16.402;2024-02-26T03:01:22;6.30;99.90
13310;DHT22;6723;48.256;16.402;2024-02-26T03:03:48;6.20;99.90
13310;DHT22;6723;48.256;16.402;2024-02-26T03:06:14;6.10;99.90
13310;DHT22;6723;48.256;16.402;2024-02-26T03:08:40;6.00;99.90
13310;DHT22;6723;48.256;16.402;2024-02-26T03:11:07;6.00;99.90
13310;DHT22;6723;48.256;16.402;2024-02-26T03:13:33;6.00;99.90
13310;DHT22;6723;48.256;16.402;2024-02-26T03:16:04;6.00;99.90
13310;DHT22;6723;48.256;16.402;2024-02-26T03:18:30;5.80;99.90
13310;DHT22;6723;48.256;16.402;2024-02-26T03:20:56;5.80;99.90
13310;DHT22;6723;48.256;16.402;2024-02-26T03:23:22;5.90;99.90
13310;DHT22;6723;48.256;16.402;2024-02-26T03:25:47;5.90;99.90
13310;DHT22;6723;48.256;16.402;2024-02-26T03:28:13;6.00;99.90
13310;DHT22;6723;48.256;16.402;2024-02-26T03:30:39;6.10;99.90
13310;DHT22;6723;48.256;16.402;2024-02-26T03:33:05;6.00;99.90
13310;DHT22;6723;48.256;16.402;2024-02-26T03:35:31;6.00;99.90
13310;DHT22;6723;48.256;16.402;2024-02-26T03:37:56;6.00;99.90
13310;DHT22;6723;48.256;16.402;2024-02-26T03:40:22;6.10;99.90
13310;DHT22;6723;48.256;16.402;2024-02-26T03:42:48;6.10;99.90
13310;DHT22;6723;48.256;16.402;2024-02-26T03:45:14;6.10;99.90
13310;DHT22;6723;48.256;16.402;2024-02-26T03:47:40;6.10;99.90
13310;DHT22;6723;48.256;16.402;2024-02-26T03:50:06;6.10;99.90
13310;DHT22;6723;48.256;16.402;2024-02-26T03:52:33;6.10;99.90
13310;DHT22;6723;48.256;16.402;2024-02-26T03:54:59;6.10;99.90
13310;DHT22;6723;48.256;16.402;2024-02-26T03:57:25;6.10;99.90
13310;DHT22;6723;48.256;16.402;2024-02-26T03:59:51;6.10;99.90
13310;DHT22;6723;48.256;16.402;2024-02-26T04:02:17;6.10;99.90
13310;DHT22;6723;48.256;16.402;2024-02-26T04:04:46;6.10;99.90
13310;DHT22;6723;48.256;16.402;2024-02-26T04:07:13;6.10;99.90
13310;DHT22;6723;48.256;16.402;2024-02-26T04:09:39;6.20;99.90
13310;DHT22;6723;48.256;16.402;2024-02-26T04:12:09;6.30;99.90
13310;DHT22;6723;48.256;16.402;2024-02-26T04:14:35;6.30;99.90
13310;DHT22;6723;48.256;16.402;2024-02-26T04:17:01;6.40;99.90
13310;DHT22;6723;48.256;16.402;2024-02-26T04:19:27;6.50;99.90
13310;DHT22;6723;48.256;16.402;2024-02-26T04:21:54;6.70;99.90
13310;DHT22;6723;48.256;16.402;2024-02-26T04:24:19;6.80;99.90
13310;DHT22;6723;48.256;16.402;2024-02-26T04:26:45;6.80;99.90
13310;DHT22;6723;48.256;16.402;2024-02-26T04:29:11;6.70;99.90
13310;DHT22;6723;48.256;16.402;2024-02-26T04:31:38;6.60;99.90
13310;DHT22;6723;48.256;16.402;2024-02-26T04:34:04;6.70;99.90
13310;DHT22;6723;48.256;16.402;2024-02-26T04:36:30;6.60;99.90
13310;DHT22;6723;48.256;16.402;2024-02-26T04:38:56;6.70;99.90
13310;DHT22;6723;48.256;16.402;2024-02-26T04:41:22;6.70;99.90
13310;DHT22;6723;48.256;16.402;2024-02-26T04:43:47;6.60;99.90
13310;DHT22;6723;48.256;16.402;2024-02-26T04:46:13;6.60;99.90
13310;DHT22;6723;48.256;16.402;2024-02-26T04:48:39;6.60;99.90
13310;DHT22;6723;48.256;16.402;2024-02-26T04:51:07;6.50;99.90
13310;DHT22;6723;48.256;16.402;2024-02-26T04:53:33;6.50;99.90
13310;DHT22;6723;48.256;16.402;2024-02-26T04:55:58;6.50;99.90
13310;DHT22;6723;48.256;16.402;2024-02-26T04:58:24;6.50;99.90
13310;DHT22;6723;48.256;16.402;2024-02-26T05:00:50;6.50;99.90
13310;DHT22;6723;48.256;16.402;2024-02-26T05:03:16;6.40;99.90
13310;DHT22;6723;48.256;16.402;2024-02-26T05:05:45;6.40;99.90
13310;DHT22;6723;48.256;16.402;2024-02-26T05:08:11;6.30;99.90
13310;DHT22;6723;48.256;16.402;2024-02-26T05:10:39;6.20;99.90
13310;DHT22;6723;48.256;16.402;2024-02-26T05:13:09;6.20;99.90
13310;DHT22;6723;48.256;16.402;2024-02-26T05:15:36;6.20;99.90
13310;DHT22;6723;48.256;16.402;2024-02-26T05:18:05;6.20;99.90
13310;DHT22;6723;48.256;16.402;2024-02-26T05:20:31;6.30;99.90
13310;DHT22;6723;48.256;16.402;2024-02-26T05:22:57;6.20;99.90
13310;DHT22;6723;48.256;16.402;2024-02-26T05:25:24;6.10;99.90
13310;DHT22;6723;48.256;16.402;2024-02-26T05:27:50;6.10;99.90
13310;DHT22;6723;48.256;16.402;2024-02-26T05:30:16;6.00;99.90
13310;DHT22;6723;48.256;16.402;2024-02-26T05:32:41;6.00;99.90
13310;DHT22;6723;48.256;16.402;2024-02-26T05:35:07;6.00;99.90
13310;DHT22;6723;48.256;16.402;2024-02-26T05:37:34;5.90;99.90
13310;DHT22;6723;48.256;16.402;2024-02-26T05:40:00;5.90;99.90
13310;DHT22;6723;48.256;16.402;2024-02-26T05:42:25;6.00;99.90
13310;DHT22;6723;48.256;16.402;2024-02-26T05:44:51;6.00;99.90
13310;DHT22;6723;48.256;16.402;2024-02-26T05:47:17;5.90;99.90
13310;DHT22;6723;48.256;16.402;2024-02-26T05:49:43;5.90;99.90
13310;DHT22;6723;48.256;16.402;2024-02-26T05:52:09;6.00;99.90
13310;DHT22;6723;48.256;16.402;2024-02-26T05:54:35;6.00;99.90
13310;DHT22;6723;48.256;16.402;2024-02-26T05:57:01;6.00;99.90
13310;DHT22;6723;48.256;16.402;2024-02-26T05:59:27;6.10;99.90
13310;DHT22;6723;48.256;16.402;2024-02-26T06:01:53;6.20;99.90
13310;DHT22;6723;48.256;16.402;2024-02-26T06:04:18;6.20;99.90
13310;DHT22;6723;48.256;16.402;2024-02-26T06:06:44;6.20;99.90
13310;DHT22;6723;48.256;16.402;2024-02-26T06:09:13;6.20;99.90
13310;DHT22;6723;48.256;16.402;2024-02-26T06:11:39;6.30;99.90
13310;DHT22;6723;48.256;16.402;2024-02-26T06:14:05;6.50;99.90
13310;DHT22;6723;48.256;16.402;2024-02-26T06:16:31;6.50;99.90
13310;DHT22;6723;48.256;16.402;2024-02-26T06:18:57;6.50;99.90
13310;DHT22;6723;48.256;16.402;2024-02-26T06:21:23;6.60;99.90
13310;DHT22;6723;48.256;16.402;2024-02-26T06:23:49;6.60;99.90
13310;DHT22;6723;48.256;16.402;2024-02-26T06:26:16;6.70;99.90
13310;DHT22;6723;48.256;16.402;2024-02-26T06:28:42;6.60;99.90
13310;DHT22;6723;48.256;16.402;2024-02-26T06:31:07;6.70;99.90
13310;DHT22;6723;48.256;16.402;2024-02-26T06:33:33;6.70;99.90
13310;DHT22;6723;48.256;16.402;2024-02-26T06:35:59;6.70;99.90
13310;DHT22;6723;48.256;16.402;2024-02-26T06:38:25;6.80;99.90
13310;DHT22;6723;48.256;16.402;2024-02-26T06:40:51;6.80;99.90
13310;DHT22;6723;48.256;16.402;2024-02-26T06:43:16;6.80;99.90
13310;DHT22;6723;48.256;16.402;2024-02-26T06:45:42;6.90;99.90
13310;DHT22;6723;48.256;16.402;2024-02-26T06:48:08;7.20;99.90
13310;DHT22;6723;48.256;16.402;2024-02-26T06:50:34;7.30;99.90
13310;DHT22;6723;48.256;16.402;2024-02-26T06:52:59;7.40;99.90
13310;DHT22;6723;48.256;16.402;2024-02-26T06:55:25;7.40;99.90
13310;DHT22;6723;48.256;16.402;2024-02-26T06:57:51;7.60;99.90
13310;DHT22;6723;48.256;16.402;2024-02-26T07:00:17;7.70;99.90
13310;DHT22;6723;48.256;16.402;2024-02-26T07:02:43;7.90;99.90
13310;DHT22;6723;48.256;16.402;2024-02-26T07:05:09;8.10;99.90
13310;DHT22;6723;48.256;16.402;2024-02-26T07:07:35;8.90;99.90
13310;DHT22;6723;48.256;16.402;2024-02-26T07:10:01;9.20;99.90
13310;DHT22;6723;48.256;16.402;2024-02-26T07:12:30;10.00;99.90
13310;DHT22;6723;48.256;16.402;2024-02-26T07:14:56;11.10;99.90
13310;DHT22;6723;48.256;16.402;2024-02-26T07:17:21;12.10;99.90
13310;DHT22;6723;48.256;16.402;2024-02-26T07:19:47;11.90;99.90
13310;DHT22;6723;48.256;16.402;2024-02-26T07:22:13;13.00;99.40
13310;DHT22;6723;48.256;16.402;2024-02-26T07:24:39;12.80;98.50
13310;DHT22;6723;48.256;16.402;2024-02-26T07:27:05;12.80;98.80
13310;DHT22;6723;48.256;16.402;2024-02-26T07:29:31;12.40;98.70
13310;DHT22;6723;48.256;16.402;2024-02-26T07:31:57;12.70;99.20
13310;DHT22;6723;48.256;16.402;2024-02-26T07:34:23;12.70;99.10
13310;DHT22;6723;48.256;16.402;2024-02-26T07:36:53;12.90;98.80
13310;DHT22;6723;48.256;16.402;2024-02-26T07:39:19;13.30;97.40
13310;DHT22;6723;48.256;16.402;2024-02-26T07:41:45;13.50;97.90
13310;DHT22;6723;48.256;16.402;2024-02-26T07:44:13;13.20;97.70
13310;DHT22;6723;48.256;16.402;2024-02-26T07:46:39;12.90;98.00
13310;DHT22;6723;48.256;16.402;2024-02-26T07:49:05;12.60;98.70
13310;DHT22;6723;48.256;16.402;2024-02-26T07:51:31;12.50;98.90
13310;DHT22;6723;48.256;16.402;2024-02-26T07:53:56;11.90;99.80
13310;DHT22;6723;48.256;16.402;2024-02-26T07:56:22;11.80;99.90
13310;DHT22;6723;48.256;16.402;2024-02-26T07:58:48;11.80;99.90
13310;DHT22;6723;48.256;16.402;2024-02-26T08:01:14;11.80;99.90
13310;DHT22;6723;48.256;16.402;2024-02-26T08:03:40;12.00;99.90
13310;DHT22;6723;48.256;16.402;2024-02-26T08:06:07;12.20;99.90
13310;DHT22;6723;48.256;16.402;2024-02-26T08:08:33;12.30;99.90
13310;DHT22;6723;48.256;16.402;2024-02-26T08:11:00;12.40;99.90
13310;DHT22;6723;48.256;16.402;2024-02-26T08:13:28;12.40;99.90
13310;DHT22;6723;48.256;16.402;2024-02-26T08:15:54;12.60;99.70
13310;DHT22;6723;48.256;16.402;2024-02-26T08:18:20;12.80;99.90
13310;DHT22;6723;48.256;16.402;2024-02-26T08:20:46;13.10;99.90
13310;DHT22;6723;48.256;16.402;2024-02-26T08:23:13;13.20;98.40
13310;DHT22;6723;48.256;16.402;2024-02-26T08:25:39;13.30;98.70
13310;DHT22;6723;48.256;16.402;2024-02-26T08:28:05;12.60;98.60
13310;DHT22;6723;48.256;16.402;2024-02-26T08:30:31;13.20;98.70
13310;DHT22;6723;48.256;16.402;2024-02-26T08:33:00;13.10;98.40
13310;DHT22;6723;48.256;16.402;2024-02-26T08:35:25;13.50;98.50
13310;DHT22;6723;48.256;16.402;2024-02-26T08:37:51;13.60;98.00
13310;DHT22;6723;48.256;16.402;2024-02-26T08:40:17;13.90;97.90
13310;DHT22;6723;48.256;16.402;2024-02-26T08:42:45;13.90;97.70
13310;DHT22;6723;48.256;16.402;2024-02-26T08:45:11;14.30;97.60
13310;DHT22;6723;48.256;16.402;2024-02-26T08:47:38;14.80;97.40
13310;DHT22;6723;48.256;16.402;2024-02-26T08:50:04;14.50;96.90
13310;DHT22;6723;48.256;16.402;2024-02-26T08:52:30;15.50;96.80
13310;DHT22;6723;48.256;16.402;2024-02-26T08:54:56;15.30;95.80
13310;DHT22;6723;48.256;16.402;2024-02-26T08:57:23;15.00;95.30
13310;DHT22;6723;48.256;16.402;2024-02-26T08:59:49;14.80;95.50
13310;DHT22;6723;48.256;16.402;2024-02-26T09:02:15;14.50;95.80
13310;DHT22;6723;48.256;16.402;2024-02-26T09:04:44;13.90;96.10
13310;DHT22;6723;48.256;16.402;2024-02-26T09:07:10;14.70;96.40
13310;DHT22;6723;48.256;16.402;2024-02-26T09:09:35;15.00;95.30
13310;DHT22;6723;48.256;16.402;2024-02-26T09:12:02;15.50;95.10
13310;DHT22;6723;48.256;16.402;2024-02-26T09:14:31;15.80;94.70
13310;DHT22;6723;48.256;16.402;2024-02-26T09:16:57;15.40;93.60
13310;DHT22;6723;48.256;16.402;2024-02-26T09:19:24;15.40;93.70
13310;DHT22;6723;48.256;16.402;2024-02-26T09:21:51;15.80;93.40
13310;DHT22;6723;48.256;16.402;2024-02-26T09:24:17;16.00;93.60
13310;DHT22;6723;48.256;16.402;2024-02-26T09:26:43;16.50;92.40
13310;DHT22;6723;48.256;16.402;2024-02-26T09:29:08;15.70;92.20
13310;DHT22;6723;48.256;16.402;2024-02-26T09:31:34;16.30;92.20
13310;DHT22;6723;48.256;16.402;2024-02-26T09:34:00;16.50;91.80
13310;DHT22;6723;48.256;16.402;2024-02-26T09:36:26;16.60;91.70
13310;DHT22;6723;48.256;16.402;2024-02-26T09:38:52;17.90;91.40
13310;DHT22;6723;48.256;16.402;2024-02-26T09:41:18;19.00;89.60
13310;DHT22;6723;48.256;16.402;2024-02-26T09:43:45;19.10;88.60
13310;DHT22;6723;48.256;16.402;2024-02-26T09:46:16;19.90;87.40
13310;DHT22;6723;48.256;16.402;2024-02-26T09:48:46;20.10;85.30
13310;DHT22;6723;48.256;16.402;2024-02-26T09:51:14;20.20;84.10
13310;DHT22;6723;48.256;16.402;2024-02-26T09:53:43;20.90;84.40
13310;DHT22;6723;48.256;16.402;2024-02-26T09:56:11;20.40;82.10
13310;DHT22;6723;48.256;16.402;2024-02-26T09:58:39;20.60;82.70
13310;DHT22;6723;48.256;16.402;2024-02-26T10:01:11;21.00;82.80
13310;DHT22;6723;48.256;16.402;2024-02-26T10:03:40;22.00;80.80
13310;DHT22;6723;48.256;16.402;2024-02-26T10:06:10;21.50;81.40
13310;DHT22;6723;48.256;16.402;2024-02-26T10:08:37;21.30;78.50
13310;DHT22;6723;48.256;16.402;2024-02-26T10:11:13;20.90;79.10
13310;DHT22;6723;48.256;16.402;2024-02-26T10:13:40;21.20;78.50
13310;DHT22;6723;48.256;16.402;2024-02-26T10:16:07;20.70;78.00
13310;DHT22;6723;48.256;16.402;2024-02-26T10:18:48;20.90;77.60
13310;DHT22;6723;48.256;16.402;2024-02-26T10:21:20;19.90;79.80
13310;DHT22;6723;48.256;16.402;2024-02-26T10:23:46;19.00;79.40
13310;DHT22;6723;48.256;16.402;2024-02-26T10:26:14;18.90;79.30
13310;DHT22;6723;48.256;16.402;2024-02-26T10:28:42;18.90;80.60
13310;DHT22;6723;48.256;16.402;2024-02-26T10:31:09;18.80;79.20
13310;DHT22;6723;48.256;16.402;2024-02-26T10:33:36;18.60;78.00
13310;DHT22;6723;48.256;16.402;2024-02-26T10:36:06;18.40;80.10
13310;DHT22;6723;48.256;16.402;2024-02-26T10:38:36;18.60;78.80
13310;DHT22;6723;48.256;16.402;2024-02-26T10:41:06;18.90;79.30
13310;DHT22;6723;48.256;16.402;2024-02-26T10:43:32;18.70;78.60
13310;DHT22;6723;48.256;16.402;2024-02-26T10:45:58;19.60;77.90
13310;DHT22;6723;48.256;16.402;2024-02-26T10:48:24;20.10;77.00
13310;DHT22;6723;48.256;16.402;2024-02-26T10:50:50;21.10;78.40
13310;DHT22;6723;48.256;16.402;2024-02-26T10:53:23;20.30;75.00
13310;DHT22;6723;48.256;16.402;2024-02-26T10:55:57;19.60;75.90
13310;DHT22;6723;48.256;16.402;2024-02-26T10:58:23;20.10;77.40
13310;DHT22;6723;48.256;16.402;2024-02-26T11:00:53;20.40;77.70
13310;DHT22;6723;48.256;16.402;2024-02-26T11:03:24;20.70;75.70
13310;DHT22;6723;48.256;16.402;2024-02-26T11:05:50;19.60;75.70
13310;DHT22;6723;48.256;16.402;2024-02-26T11:08:20;19.60;77.10
13310;DHT22;6723;48.256;16.402;2024-02-26T11:10:52;19.30;77.50
13310;DHT22;6723;48.256;16.402;2024-02-26T11:13:19;19.60;76.10
13310;DHT22;6723;48.256;16.402;2024-02-26T11:15:47;18.90;77.30
13310;DHT22;6723;48.256;16.402;2024-02-26T11:18:18;19.60;76.30
13310;DHT22;6723;48.256;16.402;2024-02-26T11:20:46;18.90;77.20
13310;DHT22;6723;48.256;16.402;2024-02-26T11:23:11;19.10;76.50
13310;DHT22;6723;48.256;16.402;2024-02-26T11:25:37;18.30;77.80
13310;DHT22;6723;48.256;16.402;2024-02-26T11:28:08;17.60;78.80
13310;DHT22;6723;48.256;16.402;2024-02-26T11:30:38;18.10;78.60
13310;DHT22;6723;48.256;16.402;2024-02-26T11:33:07;17.80;79.90
13310;DHT22;6723;48.256;16.402;2024-02-26T11:35:36;18.40;79.90
13310;DHT22;6723;48.256;16.402;2024-02-26T11:38:02;17.70;78.10
13310;DHT22;6723;48.256;16.402;2024-02-26T11:40:28;17.90;78.90
13310;DHT22;6723;48.256;16.402;2024-02-26T11:42:54;17.90;78.30
13310;DHT22;6723;48.256;16.402;2024-02-26T11:48:21;18.20;77.00
13310;DHT22;6723;48.256;16.402;2024-02-26T11:50:54;17.90;77.60
13310;DHT22;6723;48.256;16.402;2024-02-26T11:53:30;17.40;77.80
13310;DHT22;6723;48.256;16.402;2024-02-26T11:58:45;16.50;79.40
13310;DHT22;6723;48.256;16.402;2024-02-26T12:04:07;15.80;80.10
13310;DHT22;6723;48.256;16.402;2024-02-26T12:06:50;15.90;80.30
13310;DHT22;6723;48.256;16.402;2024-02-26T12:09:36;16.10;79.60
13310;DHT22;6723;48.256;16.402;2024-02-26T12:12:10;15.80;79.60
13310;DHT22;6723;48.256;16.402;2024-02-26T12:14:40;15.70;79.80
13310;DHT22;6723;48.256;16.402;2024-02-26T12:17:19;15.90;79.40
13310;DHT22;6723;48.256;16.402;2024-02-26T12:19:45;15.30;80.30
13310;DHT22;6723;48.256;16.402;2024-02-26T12:22:13;15.00;81.00
13310;DHT22;6723;48.256;16.402;2024-02-26T12:24:39;14.80;81.10
13310;DHT22;6723;48.256;16.402;2024-02-26T12:27:05;15.20;81.20
13310;DHT22;6723;48.256;16.402;2024-02-26T12:29:31;15.30;81.20
13310;DHT22;6723;48.256;16.402;2024-02-26T12:31:58;15.40;80.40
13310;DHT22;6723;48.256;16.402;2024-02-26T12:34:24;15.70;79.80
13310;DHT22;6723;48.256;16.402;2024-02-26T12:36:49;16.00;78.20
13310;DHT22;6723;48.256;16.402;2024-02-26T12:39:16;16.10;78.30
13310;DHT22;6723;48.256;16.402;2024-02-26T12:41:42;16.30;77.80
13310;DHT22;6723;48.256;16.402;2024-02-26T12:44:15;16.50;76.10
13310;DHT22;6723;48.256;16.402;2024-02-26T12:46:41;16.40;76.40
13310;DHT22;6723;48.256;16.402;2024-02-26T12:49:07;16.30;76.20
13310;DHT22;6723;48.256;16.402;2024-02-26T12:51:33;16.00;75.50
13310;DHT22;6723;48.256;16.402;2024-02-26T12:54:00;15.80;76.30
13310;DHT22;6723;48.256;16.402;2024-02-26T12:56:27;15.90;75.50
13310;DHT22;6723;48.256;16.402;2024-02-26T12:58:54;16.40;76.10
13310;DHT22;6723;48.256;16.402;2024-02-26T13:01:23;16.30;74.10
13310;DHT22;6723;48.256;16.402;2024-02-26T13:03:50;16.60;74.70
13310;DHT22;6723;48.256;16.402;2024-02-26T13:06:17;16.20;74.30
13310;DHT22;6723;48.256;16.402;2024-02-26T13:08:44;16.00;75.40
13310;DHT22;6723;48.256;16.402;2024-02-26T13:11:10;15.90;76.30
13310;DHT22;6723;48.256;16.402;2024-02-26T13:13:36;16.10;76.10
13310;DHT22;6723;48.256;16.402;2024-02-26T13:16:03;16.30;75.40
13310;DHT22;6723;48.256;16.402;2024-02-26T13:18:30;15.40;75.60
13310;DHT22;6723;48.256;16.402;2024-02-26T13:21:16;15.00;76.70
13310;DHT22;6723;48.256;16.402;2024-02-26T13:23:43;14.90;76.90
13310;DHT22;6723;48.256;16.402;2024-02-26T13:26:13;14.60;77.30
13310;DHT22;6723;48.256;16.402;2024-02-26T13:28:40;14.70;77.50
13310;DHT22;6723;48.256;16.402;2024-02-26T13:31:06;14.90;77.60
13310;DHT22;6723;48.256;16.402;2024-02-26T13:33:34;15.00;77.70
13310;DHT22;6723;48.256;16.402;2024-02-26T13:36:00;14.80;78.10
13310;DHT22;6723;48.256;16.402;2024-02-26T13:38:27;15.00;78.50
13310;DHT22;6723;48.256;16.402;2024-02-26T13:40:54;14.90;78.10
13310;DHT22;6723;48.256;16.402;2024-02-26T13:43:20;14.80;77.20
13310;DHT22;6723;48.256;16.402;2024-02-26T13:45:46;14.80;77.70
13310;DHT22;6723;48.256;16.402;2024-02-26T13:48:14;14.80;77.70
13310;DHT22;6723;48.256;16.402;2024-02-26T13:50:41;14.80;78.00
13310;DHT22;6723;48.256;16.402;2024-02-26T13:53:08;14.80;78.20
13310;DHT22;6723;48.256;16.402;2024-02-26T13:55:34;14.90;78.60
13310;DHT22;6723;48.256;16.402;2024-02-26T13:58:01;15.10;77.80
13310;DHT22;6723;48.256;16.402;2024-02-26T14:00:28;15.00;78.10
13310;DHT22;6723;48.256;16.402;2024-02-26T14:02:54;15.10;78.20
13310;DHT22;6723;48.256;16.402;2024-02-26T14:05:20;15.00;78.20
13310;DHT22;6723;48.256;16.402;2024-02-26T14:07:46;14.70;77.50
13310;DHT22;6723;48.256;16.402;2024-02-26T14:10:12;14.50;78.00
13310;DHT22;6723;48.256;16.402;2024-02-26T14:12:38;14.50;77.70
13310;DHT22;6723;48.256;16.402;2024-02-26T14:15:08;14.40;78.00
13310;DHT22;6723;48.256;16.402;2024-02-26T14:17:35;14.50;78.50
13310;DHT22;6723;48.256;16.402;2024-02-26T14:20:01;14.70;79.00
13310;DHT22;6723;48.256;16.402;2024-02-26T14:22:27;14.70;78.90
13310;DHT22;6723;48.256;16.402;2024-02-26T14:24:53;14.80;78.90
13310;DHT22;6723;48.256;16.402;2024-02-26T14:27:19;15.00;79.30
13310;DHT22;6723;48.256;16.402;2024-02-26T14:29:48;15.10;79.00
13310;DHT22;6723;48.256;16.402;2024-02-26T14:32:14;15.50;79.00
13310;DHT22;6723;48.256;16.402;2024-02-26T14:34:40;15.70;78.70
13310;DHT22;6723;48.256;16.402;2024-02-26T14:37:06;15.70;79.00
13310;DHT22;6723;48.256;16.402;2024-02-26T14:39:32;15.90;78.80
13310;DHT22;6723;48.256;16.402;2024-02-26T14:41:59;15.40;78.50
13310;DHT22;6723;48.256;16.402;2024-02-26T14:44:25;15.20;79.70
13310;DHT22;6723;48.256;16.402;2024-02-26T14:46:51;15.10;79.30
13310;DHT22;6723;48.256;16.402;2024-02-26T14:49:17;15.30;79.70
13310;DHT22;6723;48.256;16.402;2024-02-26T14:51:44;15.20;78.80
13310;DHT22;6723;48.256;16.402;2024-02-26T14:54:11;15.10;79.10
13310;DHT22;6723;48.256;16.402;2024-02-26T14:56:37;14.90;79.20
13310;DHT22;6723;48.256;16.402;2024-02-26T14:59:03;14.70;79.60
13310;DHT22;6723;48.256;16.402;2024-02-26T15:01:29;14.70;79.30
13310;DHT22;6723;48.256;16.402;2024-02-26T15:03:55;14.50;79.50
13310;DHT22;6723;48.256;16.402;2024-02-26T15:06:21;14.40;80.10
13310;DHT22;6723;48.256;16.402;2024-02-26T15:08:48;14.30;80.40
13310;DHT22;6723;48.256;16.402;2024-02-26T15:11:13;14.10;80.60
13310;DHT22;6723;48.256;16.402;2024-02-26T15:13:39;14.00;81.20
13310;DHT22;6723;48.256;16.402;2024-02-26T15:16:05;13.90;81.60
13310;DHT22;6723;48.256;16.402;2024-02-26T15:18:31;13.90;82.10
13310;DHT22;6723;48.256;16.402;2024-02-26T15:20:57;13.80;82.00
13310;DHT22;6723;48.256;16.402;2024-02-26T15:23:23;13.90;82.20
13310;DHT22;6723;48.256;16.402;2024-02-26T15:25:49;13.80;82.50
13310;DHT22;6723;48.256;16.402;2024-02-26T15:28:15;13.60;82.00
13310;DHT22;6723;48.256;16.402;2024-02-26T15:30:41;13.60;82.10
13310;DHT22;6723;48.256;16.402;2024-02-26T15:33:07;13.50;82.30
13310;DHT22;6723;48.256;16.402;2024-02-26T15:35:34;13.50;82.70
13310;DHT22;6723;48.256;16.402;2024-02-26T15:38:02;13.60;82.70
13310;DHT22;6723;48.256;16.402;2024-02-26T15:40:28;13.60;82.60
13310;DHT22;6723;48.256;16.402;2024-02-26T15:42:53;13.40;82.70